Terminal Aerodrome Forecast
Issued by NWS

Current Version | Previous Version | Text Only | Print | Product List | Glossary On
Versions: 1 2 3 4 5 6 7 8 9 10 11 12 13 14 15 16 17 18 19 20 21 22
000
FTUS41 KILN 210200 AAA
TAFLUK
TAF AMD
KLUK 210236Z 2103/2124 19007KT P6SM FEW050 BKN200
     FM210600 22009KT P6SM VCTS BKN050CB
     FM211000 23010KT P6SM VCSH OVC025
     FM211500 26014G24KT P6SM BKN040
     FM211900 30015G24KT P6SM SCT050=

USA.gov is the U.S. government's official web portal to all federal, state and local government web resources and services.